createdAt,value
2019-05-09T00:00:33.779Z,1.3
2019-05-09T00:01:07.244Z,1.1
2019-05-09T00:02:19.215Z,1
2019-05-09T00:03:33.679Z,0.6
2019-05-09T00:04:07.223Z,0.6
2019-05-09T00:05:22.232Z,0.6
2019-05-09T00:06:31.228Z,0.8
2019-05-09T00:07:07.213Z,0.8
2019-05-09T00:08:19.253Z,0.8
2019-05-09T00:09:33.347Z,1
2019-05-09T00:10:07.273Z,0.9
2019-05-09T00:11:19.259Z,1
2019-05-09T00:12:33.761Z,0.8
2019-05-09T00:13:07.244Z,1
2019-05-09T00:14:19.195Z,0.8
2019-05-09T00:15:33.693Z,0.8
2019-05-09T00:16:07.209Z,0.9
2019-05-09T00:17:19.280Z,0.9
2019-05-09T00:18:33.050Z,0.8
2019-05-09T00:19:07.218Z,0.9
2019-05-09T00:20:19.232Z,0.9
2019-05-09T00:21:33.718Z,0.8
2019-05-09T00:22:07.557Z,0.8
2019-05-09T00:23:19.282Z,0.7
2019-05-09T00:24:33.678Z,0.9
2019-05-09T00:25:07.313Z,0.9
2019-05-09T00:26:19.311Z,0.8
2019-05-09T00:27:33.534Z,1
2019-05-09T00:28:07.225Z,0.9
2019-05-09T00:29:19.329Z,1.1
2019-05-09T00:30:33.467Z,0.8
2019-05-09T00:31:07.282Z,1.1
2019-05-09T00:32:19.215Z,0.9
2019-05-09T00:33:31.857Z,0.8
2019-05-09T00:34:07.511Z,0.8
2019-05-09T00:35:19.214Z,0.9
2019-05-09T00:36:33.655Z,1.5
2019-05-09T00:37:07.462Z,1.3
2019-05-09T00:37:55.233Z,2
2019-05-09T00:38:33.838Z,1.6
2019-05-09T00:39:07.607Z,1.4
2019-05-09T00:40:19.214Z,1.6
2019-05-09T00:40:59.798Z,1
2019-05-09T00:42:07.298Z,1.6
2019-05-09T00:43:19.175Z,1.1
2019-05-09T00:44:31.288Z,1.1
2019-05-09T00:45:07.346Z,1.9
2019-05-09T00:46:19.270Z,1.5
2019-05-09T00:47:33.504Z,1.7
2019-05-09T00:48:07.203Z,1.6
2019-05-09T00:49:19.246Z,1.9
2019-05-09T00:50:31.198Z,1.8
2019-05-09T00:51:07.545Z,2
2019-05-09T00:51:55.276Z,2.3
2019-05-09T00:52:31.257Z,2.2
2019-05-09T00:53:07.456Z,1.7
2019-05-09T00:54:19.271Z,1.5
2019-05-09T00:55:33.523Z,2.1
2019-05-09T00:56:07.393Z,1.8
2019-05-09T00:57:19.232Z,1.3
2019-05-09T00:58:33.686Z,2.1
2019-05-09T00:59:07.299Z,1.9
2019-05-09T01:00:19.241Z,1.5
2019-05-09T01:01:44.567Z,1.9
2019-05-09T01:02:19.243Z,1.8
2019-05-09T01:03:31.190Z,1.8
2019-05-09T01:04:07.411Z,1.9
2019-05-09T01:04:44.627Z,2
2019-05-09T01:05:55.211Z,2.2
2019-05-09T01:06:31.267Z,2.4
2019-05-09T01:07:55.237Z,2.3
2019-05-09T01:08:33.790Z,1.9
2019-05-09T01:09:19.238Z,1.3
2019-05-09T01:09:55.205Z,1.7
2019-05-09T01:10:31.309Z,2.1
2019-05-09T01:11:16.020Z,2.2
2019-05-09T01:12:55.260Z,2.4
2019-05-09T01:13:31.237Z,1.9
2019-05-09T01:14:44.097Z,2.2
2019-05-09T01:15:55.317Z,2.4
2019-05-09T01:16:33.721Z,2.9
2019-05-09T01:17:44.969Z,2.5
2019-05-09T01:18:55.485Z,2.1
2019-05-09T01:19:31.156Z,1.6
2019-05-09T01:20:44.888Z,1.4
2019-05-09T01:21:55.167Z,1.3
2019-05-09T01:22:33.668Z,1.1
2019-05-09T01:23:44.495Z,1.4
2019-05-09T01:24:45.100Z,1.5
2019-05-09T01:25:19.197Z,1.6
2019-05-09T01:25:55.154Z,1.6
2019-05-09T01:26:33.862Z,1.8
2019-05-09T01:27:44.008Z,1.5
2019-05-09T01:28:55.249Z,2.1
2019-05-09T01:30:07.444Z,1.5
2019-05-09T01:30:44.677Z,1.6
2019-05-09T01:32:07.332Z,1.4
2019-05-09T01:32:44.209Z,1.1
2019-05-09T01:33:55.136Z,1.9
2019-05-09T01:34:33.626Z,1.7
2019-05-09T01:35:19.235Z,1.9
2019-05-09T01:35:55.201Z,1.9
2019-05-09T01:37:07.508Z,1.5
2019-05-09T01:37:44.241Z,2.1
2019-05-09T01:38:55.176Z,2.1
2019-05-09T01:40:07.327Z,1.1
2019-05-09T01:40:44.755Z,1.6
2019-05-09T01:41:34.453Z,1.8
2019-05-09T01:43:07.437Z,1.7
2019-05-09T01:43:45.091Z,2.2
2019-05-09T01:44:55.219Z,1.3
2019-05-09T01:46:07.412Z,1.6
2019-05-09T01:46:55.166Z,1.4
2019-05-09T01:48:07.466Z,1.4
2019-05-09T01:48:43.981Z,1.5
2019-05-09T01:49:55.248Z,1
2019-05-09T01:51:07.296Z,1.6
2019-05-09T01:51:45.290Z,2
2019-05-09T01:52:55.247Z,0.8
2019-05-09T01:53:33.698Z,1.1
2019-05-09T01:54:44.419Z,2.2
2019-05-09T01:55:55.196Z,1.6
2019-05-09T01:57:07.339Z,1.5
2019-05-09T01:57:48.632Z,1.6
2019-05-09T01:58:55.172Z,2
2019-05-09T02:00:33.449Z,1.8
2019-05-09T02:01:07.283Z,2.3
2019-05-09T02:01:55.251Z,2.4
2019-05-09T02:02:31.240Z,2.1
2019-05-09T02:03:45.139Z,1.3
2019-05-09T02:04:55.216Z,2
2019-05-09T02:05:31.166Z,2.1
2019-05-09T02:06:19.182Z,2.2
2019-05-09T02:06:55.149Z,2
2019-05-09T02:07:33.404Z,1.6
2019-05-09T02:08:44.744Z,1.8
2019-05-09T02:09:55.241Z,1.5
2019-05-09T02:10:31.214Z,1.5
2019-05-09T02:11:46.321Z,1.8
2019-05-09T02:12:55.191Z,2.2
2019-05-09T02:13:31.163Z,1.3
2019-05-09T02:14:31.240Z,1.8
2019-05-09T02:15:19.197Z,1.5
2019-05-09T02:15:55.198Z,1.3
2019-05-09T02:16:31.125Z,1.6
2019-05-09T02:17:19.125Z,1.5
2019-05-09T02:18:05.757Z,1.7
2019-05-09T02:19:44.787Z,1.3
2019-05-09T02:20:55.195Z,1.5
2019-05-09T02:21:31.160Z,1.3
2019-05-09T02:22:44.368Z,1.3
2019-05-09T02:23:55.153Z,2.1
2019-05-09T02:24:31.118Z,2.4
2019-05-09T02:25:44.672Z,1.9
2019-05-09T02:26:55.238Z,1.6
2019-05-09T02:27:33.490Z,2.1
2019-05-09T02:28:44.164Z,1.2
2019-05-09T02:29:55.268Z,1.6
2019-05-09T02:30:31.257Z,1.2
2019-05-09T02:31:45.577Z,1.6
2019-05-09T02:32:55.643Z,1.8
2019-05-09T02:33:35.058Z,1.5
2019-05-09T02:34:45.145Z,1.5
2019-05-09T02:36:02.889Z,1.3
2019-05-09T02:37:43.198Z,1.9
2019-05-09T02:38:20.848Z,1.1
2019-05-09T02:39:31.204Z,1.6
2019-05-09T02:40:11.163Z,1.5
2019-05-09T02:41:20.793Z,0.8
2019-05-09T02:42:14.819Z,1.2
2019-05-09T02:43:10.910Z,1.8
2019-05-09T02:44:20.561Z,1.4
2019-05-09T02:45:31.131Z,1.3
2019-05-09T02:46:10.681Z,1.1
2019-05-09T02:47:55.149Z,1.4
2019-05-09T02:48:31.224Z,1.7
2019-05-09T02:49:43.203Z,1.2
2019-05-09T02:51:10.088Z,2.4
2019-05-09T02:51:43.357Z,2.1
2019-05-09T02:52:20.689Z,1.6
2019-05-09T02:53:31.130Z,1.8
2019-05-09T02:54:10.898Z,1.4
2019-05-09T02:55:55.134Z,1.4
2019-05-09T02:56:58.333Z,1.8
2019-05-09T02:57:31.126Z,1.8
2019-05-09T02:58:09.106Z,1.6
2019-05-09T02:58:58.144Z,1.8
2019-05-09T02:59:43.209Z,2.1
2019-05-09T03:00:21.105Z,1.6
2019-05-09T03:00:55.153Z,1.5
2019-05-09T03:02:10.510Z,1.6
2019-05-09T03:03:20.737Z,0.8
2019-05-09T03:03:55.104Z,0.8
2019-05-09T03:05:09.730Z,1.1
2019-05-09T03:06:20.535Z,1.7
2019-05-09T03:06:55.204Z,1.2
2019-05-09T03:08:10.446Z,1.3
2019-05-09T03:09:19.988Z,1.3
2019-05-09T03:09:57.466Z,1.1
2019-05-09T03:11:10.818Z,1
2019-05-09T03:12:40.107Z,0.9
2019-05-09T03:14:10.060Z,0.8
2019-05-09T03:15:19.661Z,1.2
2019-05-09T03:15:58.829Z,1.6
2019-05-09T03:17:09.833Z,1.1
2019-05-09T03:18:19.412Z,1.3
2019-05-09T03:18:58.108Z,1.1
2019-05-09T03:20:10.359Z,0.8
2019-05-09T03:21:10.036Z,1.2
2019-05-09T03:21:43.113Z,1.7
2019-05-09T03:22:19.733Z,1.7
2019-05-09T03:23:31.158Z,0.9
2019-05-09T03:24:10.915Z,0.8
2019-05-09T03:25:20.118Z,1.1
2019-05-09T03:26:31.124Z,0.9
2019-05-09T03:27:09.516Z,1.4
2019-05-09T03:28:19.444Z,1.3
2019-05-09T03:29:31.250Z,1.6
2019-05-09T03:30:21.803Z,1.6
2019-05-09T03:30:59.578Z,1.2
2019-05-09T03:32:10.322Z,1.1
2019-05-09T03:32:55.123Z,1.8
2019-05-09T03:33:41.306Z,1.4
2019-05-09T03:35:19.106Z,1.5
2019-05-09T03:36:31.155Z,0.8
2019-05-09T03:37:09.297Z,0.6
2019-05-09T03:38:19.167Z,1.4
2019-05-09T03:39:31.109Z,0.6
2019-05-09T03:40:08.719Z,0.6
2019-05-09T03:41:19.151Z,1.1
2019-05-09T03:41:57.716Z,1.5
2019-05-09T03:42:44.443Z,1.6
2019-05-09T03:44:19.184Z,1.1
2019-05-09T03:45:31.187Z,0.8
2019-05-09T03:46:08.667Z,0.8
2019-05-09T03:48:19.138Z,1
2019-05-09T03:48:55.221Z,1.3
2019-05-09T03:49:31.246Z,1.6
2019-05-09T03:50:43.125Z,1.7
2019-05-09T03:52:19.107Z,0.8
2019-05-09T03:52:55.204Z,0.8
2019-05-09T03:53:43.203Z,1.2
2019-05-09T03:54:55.170Z,1.3
2019-05-09T03:55:31.092Z,0.9
2019-05-09T03:57:55.100Z,0.8
2019-05-09T03:58:31.227Z,1
2019-05-09T04:00:31.159Z,0.8
2019-05-09T04:01:31.169Z,0.9
2019-05-09T04:02:19.230Z,1.4
2019-05-09T04:03:21.172Z,1.3
2019-05-09T04:04:31.129Z,0.8
2019-05-09T04:05:08.966Z,1
2019-05-09T04:06:09.160Z,1
2019-05-09T04:06:43.075Z,1
2019-05-09T04:07:19.579Z,0.8
2019-05-09T04:08:08.144Z,1.3
2019-05-09T04:10:08.610Z,0.8
2019-05-09T04:11:09.521Z,0.9
2019-05-09T04:13:00.108Z,0.6
2019-05-09T04:13:31.135Z,0.4
2019-05-09T04:14:09.025Z,0.8
2019-05-09T04:17:19.143Z,0.9
2019-05-09T04:18:19.150Z,0.4
2019-05-09T04:19:09.134Z,0.6
2019-05-09T04:20:19.077Z,0.4
2019-05-09T04:21:57.292Z,1
2019-05-09T04:22:31.266Z,1
2019-05-09T04:23:08.762Z,0.8
2019-05-09T04:24:31.117Z,0.6
2019-05-09T04:25:19.147Z,0.6
2019-05-09T04:27:31.282Z,0.9
2019-05-09T04:28:31.088Z,0.8
2019-05-09T04:31:08.221Z,0.8
2019-05-09T04:33:19.144Z,0.8
2019-05-09T04:35:31.163Z,0.8
2019-05-09T04:36:57.347Z,0.9
2019-05-09T04:37:31.960Z,0.8
2019-05-09T04:38:08.237Z,0.8
2019-05-09T04:40:03.861Z,0.9
2019-05-09T04:40:55.129Z,0.8
2019-05-09T04:41:31.143Z,0.8
2019-05-09T04:42:09.233Z,0.9
2019-05-09T04:43:39.861Z,0.4
2019-05-09T04:44:22.182Z,0.6
2019-05-09T04:45:10.897Z,0.8
2019-05-09T04:45:43.140Z,0.8
2019-05-09T04:46:27.165Z,0.8
2019-05-09T04:48:24.753Z,0.9
2019-05-09T04:49:55.153Z,0.4
2019-05-09T04:50:43.152Z,0.8
2019-05-09T04:51:19.119Z,0.8
2019-05-09T04:51:55.089Z,0.6
2019-05-09T04:53:55.148Z,0.8
2019-05-09T04:54:55.047Z,0.8
2019-05-09T04:56:31.058Z,0.8
2019-05-09T04:57:43.119Z,0.8
2019-05-09T04:58:55.069Z,0.6
2019-05-09T04:59:31.136Z,0.2
2019-05-09T05:00:10.741Z,0.2
2019-05-09T05:01:20.601Z,0.8
2019-05-09T05:02:43.130Z,0.8
2019-05-09T05:03:19.179Z,1
2019-05-09T05:03:57.581Z,1
2019-05-09T05:05:08.641Z,0.7
2019-05-09T05:05:44.528Z,1.2
2019-05-09T05:06:31.101Z,0.9
2019-05-09T05:07:31.154Z,0.8
2019-05-09T05:08:08.375Z,0.4
2019-05-09T05:08:43.078Z,0.6
2019-05-09T05:09:22.263Z,0.8
2019-05-09T05:10:31.107Z,1.1
2019-05-09T05:11:19.088Z,0.8
2019-05-09T05:11:55.062Z,0.8
2019-05-09T05:12:31.144Z,0.8
2019-05-09T05:13:29.571Z,0.9
2019-05-09T05:14:55.153Z,0.8
2019-05-09T05:15:31.127Z,0.8
2019-05-09T05:16:43.176Z,0.8
2019-05-09T05:17:55.117Z,0.8
2019-05-09T05:18:31.099Z,0.8
2019-05-09T05:19:43.136Z,0.8
2019-05-09T05:20:31.168Z,0.2
2019-05-09T05:21:31.057Z,1.2
2019-05-09T05:22:19.212Z,0.8
2019-05-09T05:23:19.118Z,0.2
2019-05-09T05:24:09.026Z,0.6
2019-05-09T05:25:00.474Z,0.8
2019-05-09T05:25:31.048Z,0.9
2019-05-09T05:26:09.858Z,0.7
2019-05-09T05:27:31.122Z,0.8
2019-05-09T05:28:09.452Z,0.8
2019-05-09T05:29:19.182Z,0.6
2019-05-09T05:30:31.075Z,0.4
2019-05-09T05:32:19.107Z,0.4
2019-05-09T05:33:31.030Z,0.6
2019-05-09T05:34:09.149Z,0.8
2019-05-09T05:35:19.064Z,0.9
2019-05-09T05:36:31.123Z,0.8
2019-05-09T05:37:08.373Z,0.8
2019-05-09T05:38:19.029Z,0.6
2019-05-09T05:39:31.109Z,1.1
2019-05-09T05:40:08.692Z,1
2019-05-09T05:40:58.039Z,0.6
2019-05-09T05:41:31.032Z,0.2
2019-05-09T05:42:09.128Z,0.6
2019-05-09T05:43:19.073Z,0.8
2019-05-09T05:44:31.117Z,0.8
2019-05-09T05:45:08.376Z,0.8
2019-05-09T05:46:19.193Z,1
2019-05-09T05:47:31.102Z,0.9
2019-05-09T05:48:08.714Z,0.9
2019-05-09T05:49:31.130Z,0.6
2019-05-09T05:50:09.230Z,0.6
2019-05-09T05:51:19.298Z,1.2
2019-05-09T05:52:31.102Z,0.9
2019-05-09T05:53:08.833Z,1.1
2019-05-09T05:54:19.137Z,1.3
2019-05-09T05:55:31.090Z,1.1
2019-05-09T05:56:09.299Z,1.1
2019-05-09T05:57:19.108Z,1.1
2019-05-09T05:58:31.060Z,1
2019-05-09T05:59:19.032Z,1.3
2019-05-09T06:00:43.130Z,1.7
2019-05-09T06:01:19.714Z,1.5
2019-05-09T06:02:31.037Z,0.8
2019-05-09T06:03:09.525Z,0.6
2019-05-09T06:04:19.613Z,0.2
2019-05-09T06:05:43.040Z,0.8
2019-05-09T06:06:19.127Z,1.6
2019-05-09T06:07:31.068Z,0.9
2019-05-09T06:08:09.048Z,1
2019-05-09T06:09:19.985Z,1.1
2019-05-09T06:10:31.055Z,1.2
2019-05-09T06:11:12.933Z,1.1
2019-05-09T06:12:19.375Z,1.3
2019-05-09T06:13:31.107Z,0.8
2019-05-09T06:14:12.626Z,1.1
2019-05-09T06:15:19.290Z,1.1
2019-05-09T06:16:31.095Z,0.8
2019-05-09T06:17:08.901Z,0.8
2019-05-09T06:18:19.360Z,1.6
2019-05-09T06:19:31.050Z,1.2
2019-05-09T06:20:09.749Z,0.8
2019-05-09T06:20:49.256Z,1.3
2019-05-09T06:22:31.004Z,1.3
2019-05-09T06:23:09.406Z,1.2
2019-05-09T06:24:19.069Z,1.1
2019-05-09T06:25:31.758Z,1.5
2019-05-09T06:26:11.203Z,1.6
2019-05-09T06:27:19.192Z,1.2
2019-05-09T06:28:31.066Z,1.5
2019-05-09T06:29:08.905Z,1.2
2019-05-09T06:30:31.150Z,0.9
2019-05-09T06:31:08.397Z,1.2
2019-05-09T06:32:19.727Z,0.6
2019-05-09T06:33:31.098Z,1.3
2019-05-09T06:34:19.883Z,1.3
2019-05-09T06:35:31.020Z,0.7
2019-05-09T06:36:09.083Z,0.6
2019-05-09T06:37:19.333Z,0.8
2019-05-09T06:38:31.212Z,1.1
2019-05-09T06:39:09.202Z,1.1
2019-05-09T06:40:22.270Z,1.4
2019-05-09T06:41:31.074Z,1.7
2019-05-09T06:42:10.036Z,1.5
2019-05-09T06:43:19.607Z,1.1
2019-05-09T06:44:20.906Z,1.2
2019-05-09T06:45:19.053Z,1
2019-05-09T06:46:31.102Z,1
2019-05-09T06:47:09.184Z,1.2
2019-05-09T06:48:19.003Z,1.2
2019-05-09T06:49:31.697Z,0.8
2019-05-09T06:50:08.864Z,1
2019-05-09T06:51:22.111Z,1
2019-05-09T06:52:31.040Z,1.1
2019-05-09T06:53:08.875Z,1
2019-05-09T06:54:19.061Z,0.8
2019-05-09T06:55:31.030Z,0.6
2019-05-09T06:57:19.570Z,0.6
2019-05-09T06:58:09.705Z,1
2019-05-09T06:58:43.003Z,0.8
2019-05-09T06:59:19.966Z,0.9
2019-05-09T07:00:43.059Z,1.1
2019-05-09T07:01:19.189Z,0.9
2019-05-09T07:02:31.171Z,0.8
2019-05-09T07:03:09.003Z,0.9
2019-05-09T07:04:19.187Z,0.8
2019-05-09T07:05:31.052Z,1
2019-05-09T07:06:09.195Z,0.8
2019-05-09T07:07:19.083Z,0.9
2019-05-09T07:08:32.296Z,0.6
2019-05-09T07:09:09.258Z,0.8
2019-05-09T07:10:19.045Z,0.4
2019-05-09T07:11:30.986Z,0.6
2019-05-09T07:12:08.760Z,1
2019-05-09T07:13:19.139Z,0.8
2019-05-09T07:14:42.097Z,1
2019-05-09T07:16:19.570Z,0.8
2019-05-09T07:17:32.869Z,0.7
2019-05-09T07:18:09.008Z,0.7
2019-05-09T07:19:19.074Z,1.8
2019-05-09T07:20:31.004Z,1.2
2019-05-09T07:21:09.126Z,1
2019-05-09T07:22:19.419Z,0.6
2019-05-09T07:23:31.097Z,0.8
2019-05-09T07:24:19.357Z,1.5
2019-05-09T07:25:11.453Z,1.6
2019-05-09T07:26:08.576Z,0.8
2019-05-09T07:27:19.050Z,1.7
2019-05-09T07:28:31.030Z,1.4
2019-05-09T07:29:08.338Z,1.4
2019-05-09T07:30:19.018Z,1.7
2019-05-09T07:31:31.077Z,0.9
2019-05-09T07:32:08.378Z,0.9
2019-05-09T07:33:20.247Z,0.8
2019-05-09T07:34:31.049Z,1
2019-05-09T07:35:09.642Z,1.1
2019-05-09T07:36:19.848Z,1.2
2019-05-09T07:37:31.004Z,1.2
2019-05-09T07:38:09.308Z,0.8
2019-05-09T07:39:19.083Z,0.9
2019-05-09T07:40:31.574Z,0.8
2019-05-09T07:41:18.981Z,1.5
2019-05-09T07:42:31.044Z,1.1
2019-05-09T07:43:19.031Z,1
2019-05-09T07:44:52.931Z,0.8
2019-05-09T07:46:19.051Z,1.3
2019-05-09T07:47:31.076Z,1.6
2019-05-09T07:48:08.452Z,1.5
2019-05-09T07:48:58.055Z,1.5
2019-05-09T07:50:09.433Z,0.9
2019-05-09T07:51:19.014Z,1.1
2019-05-09T07:52:30.958Z,1
2019-05-09T07:53:09.672Z,0.9
2019-05-09T07:54:29.833Z,1.8
2019-05-09T07:55:54.987Z,1.6
2019-05-09T07:56:30.962Z,1.8
2019-05-09T07:57:19.184Z,1.4
2019-05-09T07:57:59.643Z,1.6
2019-05-09T07:58:43.039Z,0.8
2019-05-09T07:59:19.037Z,0.6
2019-05-09T07:59:55.005Z,0.8
2019-05-09T08:01:31.078Z,1.6
2019-05-09T08:02:09.570Z,1.2
2019-05-09T08:02:43.043Z,1.5
2019-05-09T08:03:31.039Z,1.7
2019-05-09T08:04:43.040Z,1.3
2019-05-09T08:06:09.679Z,1.4
2019-05-09T08:06:43.133Z,1.7
2019-05-09T08:08:08.999Z,1.9
2019-05-09T08:08:42.966Z,1.6
2019-05-09T08:09:55.060Z,1.4
2019-05-09T08:10:34.076Z,1.1
2019-05-09T08:11:43.052Z,1.4
2019-05-09T08:12:55.025Z,1.2
2019-05-09T08:13:30.985Z,1.4
2019-05-09T08:14:11.574Z,1.1
2019-05-09T08:15:21.110Z,1.1
2019-05-09T08:16:31.055Z,1.1
2019-05-09T08:17:43.012Z,0.9
2019-05-09T08:18:55.045Z,1.3
2019-05-09T08:19:31.022Z,0.8
2019-05-09T08:20:42.965Z,1.3
2019-05-09T08:21:56.905Z,1
2019-05-09T08:23:02.597Z,1.2
2019-05-09T08:23:54.960Z,1.3
2019-05-09T08:24:31.057Z,0.9
2019-05-09T08:25:43.112Z,1.5
2019-05-09T08:26:55.037Z,1.1
2019-05-09T08:27:31.215Z,0.6
2019-05-09T08:28:42.985Z,0.8
2019-05-09T08:29:21.080Z,0.6
2019-05-09T08:30:40.904Z,0.8
2019-05-09T08:31:48.981Z,1.1
2019-05-09T08:32:31.058Z,0.4
2019-05-09T08:33:42.992Z,0.5
2019-05-09T08:34:57.380Z,1
2019-05-09T08:35:31.011Z,0.8
2019-05-09T08:36:42.936Z,0.2
2019-05-09T08:37:55.002Z,0.4
2019-05-09T08:38:30.985Z,0.2
2019-05-09T08:39:43.037Z,0.4
2019-05-09T08:40:22.233Z,0.4
2019-05-09T08:41:31.027Z,0.4
2019-05-09T08:42:43.002Z,0.2
2019-05-09T08:43:20.637Z,0.4
2019-05-09T08:44:32.171Z,0.8
2019-05-09T08:45:31.815Z,0.6
2019-05-09T08:46:57.195Z,0
2019-05-09T08:47:30.987Z,0.2
2019-05-09T08:49:30.916Z,0.9
2019-05-09T08:50:43.010Z,1
2019-05-09T08:52:20.137Z,0.8
2019-05-09T08:53:19.791Z,1.4
2019-05-09T08:53:55.012Z,1.7
2019-05-09T08:54:30.942Z,1.1
2019-05-09T08:55:55.034Z,0.8
2019-05-09T08:56:31.023Z,0.8
2019-05-09T08:57:19.216Z,1
2019-05-09T08:58:08.931Z,1.1
2019-05-09T08:58:42.995Z,1.2
2019-05-09T08:59:30.988Z,1
2019-05-09T09:00:42.921Z,0.8
2019-05-09T09:02:21.725Z,1.5
2019-05-09T09:02:22.728Z,1
2019-05-09T09:03:19.445Z,0.9
2019-05-09T09:04:43.027Z,1.1
2019-05-09T09:05:19.623Z,1.1
2019-05-09T09:06:30.935Z,0.8
2019-05-09T09:07:09.317Z,0.8
2019-05-09T09:08:19.373Z,0.7
2019-05-09T09:10:09.367Z,0.9
2019-05-09T09:10:42.958Z,1.2
2019-05-09T09:11:19.695Z,1
2019-05-09T09:12:35.252Z,1.1
2019-05-09T09:13:09.770Z,1
2019-05-09T09:14:19.371Z,1.2
2019-05-09T09:16:22.638Z,0.9
2019-05-09T09:17:31.013Z,1.3
2019-05-09T09:18:09.544Z,1.2
2019-05-09T09:19:30.977Z,1
2019-05-09T09:20:08.648Z,0.9
2019-05-09T09:21:31.032Z,0.8
2019-05-09T09:22:19.028Z,1.5
2019-05-09T09:23:51.220Z,1.1
2019-05-09T09:24:09.465Z,1
2019-05-09T09:25:19.432Z,1.2
2019-05-09T09:25:58.080Z,1.4
2019-05-09T09:36:19.023Z,1.4
2019-05-09T10:25:30.937Z,1.3
2019-05-09T10:34:54.894Z,0.6
2019-05-09T10:47:20.325Z,1.3
2019-05-09T10:51:19.503Z,1.2
2019-05-09T11:01:09.985Z,0.8
2019-05-09T11:05:19.309Z,0.8
2019-05-09T11:29:08.846Z,0.4
2019-05-09T11:30:30.878Z,0.8
2019-05-09T11:36:30.833Z,0.8
2019-05-09T11:38:44.297Z,0.8
2019-05-09T12:04:30.916Z,1
2019-05-09T12:09:09.587Z,0.6
2019-05-09T12:18:11.302Z,0.9
2019-05-09T12:33:19.635Z,1.4
2019-05-09T12:38:55.068Z,1.1
2019-05-09T12:40:20.982Z,0.8
2019-05-09T12:54:42.853Z,1
2019-05-09T12:55:30.808Z,1.4
2019-05-09T12:56:08.968Z,1.1
2019-05-09T12:59:54.874Z,0.8
2019-05-09T13:08:18.792Z,1.1
2019-05-09T13:33:54.854Z,1.7
2019-05-09T13:42:30.812Z,0.8
2019-05-09T13:49:15.842Z,0.4
2019-05-09T14:01:30.812Z,1.2
2019-05-09T14:14:30.810Z,1
2019-05-09T14:15:19.441Z,1
2019-05-09T15:46:09.043Z,0.5
2019-05-09T16:22:08.874Z,1
2019-05-09T16:23:54.664Z,0.4
2019-05-09T16:24:30.782Z,0.2
2019-05-09T16:32:54.674Z,0
2019-05-09T16:34:54.726Z,0
2019-05-09T16:36:54.665Z,0
2019-05-09T16:38:11.164Z,0
2019-05-09T16:49:16.634Z,0
2019-05-09T16:49:42.609Z,0
2019-05-09T16:50:18.862Z,0
2019-05-09T16:51:04.916Z,0
2019-05-09T16:52:08.315Z,0
2019-05-09T16:53:31.009Z,0.7
2019-05-09T16:54:30.621Z,0
2019-05-09T16:55:09.079Z,0
2019-05-09T16:56:42.716Z,0
2019-05-09T16:57:19.085Z,0
2019-05-09T17:18:30.611Z,0.8
2019-05-09T17:19:06.948Z,1.2
2019-05-09T17:33:42.628Z,0.6
2019-05-09T17:38:30.565Z,0.8
2019-05-09T17:56:11.615Z,0.6
2019-05-09T17:59:54.645Z,0.8
2019-05-09T18:02:18.663Z,0.4
2019-05-09T18:03:30.548Z,0.6
2019-05-09T18:18:42.583Z,0.8
2019-05-09T18:45:18.543Z,0.6
2019-05-09T19:38:06.835Z,0.8
2019-05-09T20:29:06.659Z,0.8
2019-05-09T20:30:18.563Z,0
2019-05-09T20:31:18.517Z,0.4
2019-05-09T20:33:06.655Z,0.8
2019-05-09T20:34:06.682Z,0.6
2019-05-09T20:34:42.508Z,0.8
2019-05-09T20:35:18.557Z,0.9
2019-05-09T20:37:18.554Z,0.2
2019-05-09T20:38:54.632Z,0.2
2019-05-09T20:39:31.968Z,0.4
2019-05-09T20:40:42.549Z,0.2
2019-05-09T20:41:30.588Z,0.4
2019-05-09T21:16:30.473Z,0.6
2019-05-09T21:22:42.502Z,0.6
2019-05-09T21:23:30.488Z,0.6
2019-05-09T21:25:34.331Z,0
2019-05-09T22:11:54.450Z,0.6
2019-05-09T22:17:06.531Z,0.8
2019-05-09T22:17:42.460Z,1.6
2019-05-09T22:39:54.480Z,1.4
2019-05-09T23:30:54.447Z,0.6
2019-05-09T23:37:42.405Z,0.6
2019-05-09T23:39:42.417Z,0.8
2019-05-09T23:59:30.650Z,0.6
